This is the latest recevied weather packets stored in our database for station/object SP3OTE-2. If no packets are shown the sender has not sent any weather packets the latest 10 day(s).
| Time | Temp. | Humidity | Pressure | Rain* | Wind** | Luminosity | Snow |
|---|---|---|---|---|---|---|---|
| 1777571031 | 16.67° C | 36% | 1028.2 hPa | - | - | - | - |
| 1777570431 | 17.22° C | 35% | 1028.2 hPa | - | - | - | - |
| 1777569831 | 19.44° C | 32% | 1028.1 hPa | - | - | - | - |
| 1777569231 | 21.67° C | 30% | 1028.1 hPa | - | - | - | - |
| 1777568630 | 22.78° C | 29% | 1028.2 hPa | - | - | - | - |
| 1777568030 | 25° C | 28% | 1028 hPa | - | - | - | - |
| 1777567430 | 25° C | 28% | 1028.1 hPa | - | - | - | - |
| 1777566831 | 23.89° C | 28% | 1028.1 hPa | - | - | - | - |
| 1777566229 | 23.89° C | 29% | 1028.2 hPa | - | - | - | - |
| 1777565629 | 23.89° C | 28% | 1028.3 hPa | - | - | - | - |
| 1777565029 | 22.78° C | 28% | 1028.3 hPa | - | - | - | - |
| 1777564428 | 22.78° C | 29% | 1028.4 hPa | - | - | - | - |
| 1777563828 | 22.78° C | 29% | 1028.4 hPa | - | - | - | - |
| 1777563228 | 21.67° C | 31% | 1028.3 hPa | - | - | - | - |
| 1777562628 | 21.67° C | 30% | 1028.3 hPa | - | - | - | - |
| 1777562027 | 21.11° C | 31% | 1028.3 hPa | - | - | - | - |
| 1777561427 | 21.11° C | 31% | 1028.5 hPa | - | - | - | - |
| 1777560827 | 19.44° C | 33% | 1028.7 hPa | - | - | - | - |
| 1777560227 | 16.11° C | 36% | 1028.8 hPa | - | - | - | - |
| 1777559626 | 17.22° C | 35% | 1028.8 hPa | - | - | - | - |
| 1777559026 | 17.22° C | 35% | 1028.9 hPa | - | - | - | - |
| 1777558426 | 16.67° C | 35% | 1028.9 hPa | - | - | - | - |
| 1777557826 | 16.11° C | 35% | 1029 hPa | - | - | - | - |
| 1777557226 | 15.56° C | 36% | 1029.2 hPa | - | - | - | - |
| 1777556625 | 15.56° C | 35% | 1029.3 hPa | - | - | - | - |
* Rain since midnight (hover to see other rain measurements)
** Current wind speed in m/s (hover to see current wind gust speed)